Livingston, United Kingdom
Current Conditions -  °F | °C
As of 9:50 AM on Sunday 21 Dec 2014 (Local Time) from EGPH Reporting Station
Broken Clouds Broken Clouds  
Wind Chill: 41°   Ceiling: 1400
Heat Index: 48°   Visibility: 6mi
Dew Point: 45°   Wind: 22mph
Humidity: 87%   Direction: 240°WSW
Pressure: 29.83"   Gusts: 35mph
Location:  55.9°N, 3.52°W
Report Text: EGPH 210950Z 24019G30KT 9999 BKN014 09/07 Q1010
Loading
Personal Weather Stations






























Interactive Weather Map New forecast layout! Learn more

10-Day Weather Forecast

Advertisements
Track Severe Weather on mobile